Rechercher aéroport 
image banner adimage banner adimage banner ad
image banner ad

CL46 - Quail Lake Sky Park

Situé à Gorman/Lancaster, United States

ICAO - CL46, IATA -

Données fournies par Airmate  

Information générale

Coordonnées: N34°46'4" W118°43'54"
Élévation : 3370 feet MSL.
Variation magnétique : 14° East
Voir autres Aéroports à California

Données opérationnelles

Special qualification required
Heure actuelle UTC:
Heure actuelle locale:
Météo à : KWJF - General Wm J Fox Airfield ( 47 km )
METAR: KWJF 020456Z AUTO 23010KT 10SM CLR 29/M01 A3008 RMK AO2 SLP161 T02891006
TAF: KWJF 012348Z 0200/0224 24018G25KT P6SM SKC FM020400 25012KT P6SM SKC FM021000 VRB03KT P6SM SKC FM022100 24014G22KT P6SM SKC
Voir NOTAMs / SUP AIP / TFR affectant cet aéroport [VIEW]
Fréquences de communication: [VIEW]

Pistes:

Identifiant RWYQFULongueur (ft)Largeur (ft)SurfaceLDA (ft)
08310040ASPH
26310040ASPH

Coordonnées de l'aéroport

Adresse: Gorman/Lancaster United States

Vue satellite de CL46